createdAt,value
2022-09-04T00:00:32.427Z,101233.28
2022-09-04T00:04:15.625Z,101220.97
2022-09-04T00:07:50.498Z,101221.06
2022-09-04T00:11:35.447Z,101216.22
2022-09-04T00:15:30.489Z,101213.47
2022-09-04T00:19:04.447Z,101227.50
2022-09-04T00:22:34.495Z,101219.53
2022-09-04T00:26:08.447Z,101218.41
2022-09-04T00:29:36.535Z,101215.03
2022-09-04T00:33:06.545Z,101213.31
2022-09-04T00:36:30.511Z,101210.84
2022-09-04T00:40:32.625Z,101210.44
2022-09-04T00:44:00.466Z,101215.25
2022-09-04T00:47:53.551Z,101222.31
2022-09-04T00:51:32.506Z,101197.28
2022-09-04T00:54:58.514Z,101188.19
2022-09-04T00:58:37.099Z,101192.63
2022-09-04T01:01:55.673Z,101171.03
2022-09-04T01:05:53.513Z,101166.16
2022-09-04T01:09:39.505Z,101171.75
2022-09-04T01:13:26.484Z,101161.13
2022-09-04T01:17:12.510Z,101163.28
2022-09-04T01:20:53.530Z,101161.06
2022-09-04T01:24:33.502Z,101148.50
2022-09-04T01:28:21.559Z,101154.34
2022-09-04T01:32:06.626Z,101150.38
2022-09-04T01:36:04.529Z,101155.72
2022-09-04T01:39:28.657Z,101163.47
2022-09-04T01:43:09.475Z,101163.91
2022-09-04T01:46:51.546Z,101157.59
2022-09-04T01:50:23.491Z,101144.56
2022-09-04T01:53:47.540Z,101148.88
2022-09-04T01:57:32.525Z,101140.81
2022-09-04T02:01:29.145Z,101129.75
2022-09-04T02:05:25.553Z,101129.31
2022-09-04T02:09:08.545Z,101116.44
2022-09-04T02:13:06.604Z,101115.31
2022-09-04T02:16:41.589Z,101104.56
2022-09-04T02:20:20.541Z,101106.31
2022-09-04T02:23:55.543Z,101110.84
2022-09-04T02:27:20.589Z,101112.34
2022-09-04T02:30:54.561Z,101099.97
2022-09-04T02:34:46.547Z,101100.50
2022-09-04T02:38:25.651Z,101088.78
2022-09-04T02:42:11.541Z,101082.69
2022-09-04T02:46:13.648Z,101075.25
2022-09-04T02:50:24.550Z,101076.59
2022-09-04T02:53:54.562Z,101085.09
2022-09-04T02:57:52.612Z,101071.97
2022-09-04T03:01:51.609Z,101072.81
2022-09-04T03:05:36.611Z,101063.19
2022-09-04T03:09:20.518Z,101069.72
2022-09-04T03:12:57.561Z,101060.66
2022-09-04T03:16:23.693Z,101066.97
2022-09-04T03:20:05.559Z,101057.41
2022-09-04T03:23:38.564Z,101059.16
2022-09-04T03:27:15.572Z,101058.66
2022-09-04T03:30:40.566Z,101048.13
2022-09-04T03:34:19.533Z,101029.59
2022-09-04T03:37:54.574Z,101020.44
2022-09-04T03:41:53.575Z,101010.91
2022-09-04T03:46:04.653Z,101005.19
2022-09-04T03:49:54.604Z,101001.94
2022-09-04T03:53:45.567Z,100991.06
2022-09-04T03:57:47.631Z,100981.19
2022-09-04T04:01:36.578Z,100958.44
2022-09-04T04:05:12.589Z,100973.94
2022-09-04T04:08:54.566Z,100979.34
2022-09-04T04:12:43.618Z,100990.72
2022-09-04T04:16:09.692Z,100991.28
2022-09-04T04:20:01.624Z,100993.47
2022-09-04T04:24:10.605Z,100994.84
2022-09-04T04:27:43.601Z,100981.97
2022-09-04T04:31:15.662Z,100993.66
2022-09-04T04:35:11.648Z,100984.34
2022-09-04T04:38:57.593Z,100995.19
2022-09-04T04:42:34.641Z,100998.00
2022-09-04T04:46:27.610Z,100989.59
2022-09-04T04:50:14.641Z,100982.34
2022-09-04T04:54:09.978Z,100980.56
2022-09-04T04:58:01.636Z,100981.72
2022-09-04T05:01:46.687Z,100988.72
2022-09-04T05:05:32.635Z,100988.16
2022-09-04T05:09:31.664Z,100990.16
2022-09-04T05:13:19.595Z,100984.03
2022-09-04T05:17:01.664Z,100998.03
2022-09-04T05:20:43.594Z,100994.16
2022-09-04T05:24:25.650Z,101012.84
2022-09-04T05:28:10.656Z,101011.72
2022-09-04T05:31:58.597Z,101024.22
2022-09-04T05:35:35.200Z,101022.53
2022-09-04T05:39:28.645Z,101021.75
2022-09-04T05:43:17.667Z,101031.72
2022-09-04T05:47:20.650Z,101028.13
2022-09-04T05:51:20.609Z,101025.56
2022-09-04T05:54:49.619Z,101034.00
2022-09-04T05:58:24.734Z,101029.09
2022-09-04T06:02:04.746Z,101038.84
2022-09-04T06:05:41.684Z,101039.91
2022-09-04T06:09:12.599Z,101054.47
2022-09-04T06:12:57.689Z,101057.59
2022-09-04T06:16:55.648Z,101068.88
2022-09-04T06:20:40.643Z,101077.06
2022-09-04T06:24:16.666Z,101076.78
2022-09-04T06:27:49.654Z,101068.22
2022-09-04T06:31:33.701Z,101071.91
2022-09-04T06:35:31.673Z,101065.63
2022-09-04T06:39:11.695Z,101075.69
2022-09-04T06:42:52.645Z,101095.09
2022-09-04T06:46:29.757Z,101093.91
2022-09-04T06:50:14.655Z,101099.50
2022-09-04T06:53:53.683Z,101094.03
2022-09-04T06:57:39.953Z,101088.88
2022-09-04T07:01:19.784Z,101095.78
2022-09-04T07:04:51.671Z,101101.41
2022-09-04T07:08:18.665Z,101095.69
2022-09-04T07:12:21.641Z,101107.78
2022-09-04T07:16:18.737Z,101116.59
2022-09-04T07:20:02.616Z,101128.38
2022-09-04T07:23:40.712Z,101122.25
2022-09-04T07:27:23.631Z,101119.78
2022-09-04T07:30:48.709Z,101143.75
2022-09-04T07:34:15.668Z,101154.78
2022-09-04T07:37:48.737Z,101149.44
2022-09-04T07:41:27.657Z,101158.84
2022-09-04T07:45:02.667Z,101163.81
2022-09-04T07:48:30.662Z,101161.97
2022-09-04T07:52:01.671Z,101166.00
2022-09-04T07:55:55.623Z,101181.03
2022-09-04T07:59:41.715Z,101172.69
2022-09-04T08:03:19.651Z,101191.56
2022-09-04T08:06:52.672Z,101174.22
2022-09-04T08:10:28.680Z,101179.53
2022-09-04T08:14:02.715Z,101181.25
2022-09-04T08:17:39.689Z,101174.13
2022-09-04T08:21:43.657Z,101169.78
2022-09-04T08:25:27.678Z,101165.31
2022-09-04T08:29:07.654Z,101164.50
2022-09-04T08:32:54.720Z,101168.59
2022-09-04T08:36:26.704Z,101172.59
2022-09-04T08:40:14.720Z,101167.91
2022-09-04T08:44:11.666Z,101157.22
2022-09-04T08:47:50.718Z,101135.94
2022-09-04T08:51:27.763Z,101128.88
2022-09-04T08:55:15.732Z,101125.78
2022-09-04T08:59:04.695Z,101108.38
2022-09-04T09:02:46.777Z,101083.16
2022-09-04T09:06:23.697Z,101071.38
2022-09-04T09:10:01.692Z,101075.38
2022-09-04T09:13:32.718Z,101061.97
2022-09-04T09:17:02.768Z,101056.66
2022-09-04T09:20:38.754Z,101065.66
2022-09-04T09:24:27.670Z,101052.56
2022-09-04T09:28:28.701Z,101050.59
2022-09-04T09:32:20.708Z,101051.25
2022-09-04T09:36:14.779Z,101054.94
2022-09-04T09:39:44.682Z,101036.66
2022-09-04T09:43:12.703Z,101027.03
2022-09-04T09:47:09.717Z,101035.00
2022-09-04T09:50:56.721Z,101046.53
2022-09-04T09:55:25.726Z,101045.81
2022-09-04T09:59:08.745Z,101044.97
2022-09-04T10:02:50.749Z,101030.69
2022-09-04T10:06:42.724Z,101018.09
2022-09-04T10:10:27.679Z,101006.50
2022-09-04T10:14:12.762Z,101000.69
2022-09-04T10:17:57.685Z,100990.63
2022-09-04T10:21:57.741Z,100994.41
2022-09-04T10:25:48.705Z,101002.50
2022-09-04T10:29:34.718Z,100987.50
2022-09-04T10:33:16.733Z,100989.97
2022-09-04T10:36:52.727Z,100983.34
2022-09-04T10:40:44.610Z,100989.44
2022-09-04T10:44:15.692Z,100982.28
2022-09-04T10:47:52.775Z,100969.75
2022-09-04T10:51:42.760Z,100972.78
2022-09-04T10:55:24.735Z,100959.47
2022-09-04T10:59:03.783Z,100968.03
2022-09-04T11:02:28.484Z,100969.00
2022-09-04T11:06:19.779Z,100973.47
2022-09-04T11:10:20.783Z,100982.56
2022-09-04T11:14:13.751Z,100982.91
2022-09-04T11:17:42.775Z,100984.13
2022-09-04T11:21:29.748Z,100982.63
2022-09-04T11:25:07.752Z,100979.06
2022-09-04T11:28:59.753Z,100956.56
2022-09-04T11:32:31.846Z,100952.25
2022-09-04T11:36:15.713Z,100965.66
2022-09-04T11:39:48.850Z,100944.44
2022-09-04T11:43:35.753Z,100938.59
2022-09-04T11:47:31.757Z,100942.75
2022-09-04T11:51:04.769Z,100944.69
2022-09-04T11:54:40.756Z,100937.91
2022-09-04T11:58:17.723Z,100935.94
2022-09-04T12:02:00.785Z,100933.34
2022-09-04T12:05:32.800Z,100927.03
2022-09-04T12:09:02.789Z,100914.84
2022-09-04T12:12:40.773Z,100919.53
2022-09-04T12:16:12.839Z,100901.28
2022-09-04T12:19:50.761Z,100902.44
2022-09-04T12:23:51.785Z,100910.03
2022-09-04T12:27:38.769Z,100902.31
2022-09-04T12:31:06.785Z,100917.97
2022-09-04T12:34:35.760Z,100920.16
2022-09-04T12:38:17.776Z,100931.06
2022-09-04T12:41:57.730Z,100929.41
2022-09-04T12:45:33.859Z,100940.53
2022-09-04T12:48:57.785Z,100952.22
2022-09-04T12:53:00.776Z,100954.81
2022-09-04T12:56:51.825Z,100957.78
2022-09-04T13:00:25.791Z,100955.66
2022-09-04T13:03:52.829Z,100952.28
2022-09-04T13:07:37.813Z,100945.59
2022-09-04T13:11:11.755Z,100941.59
2022-09-04T13:14:45.812Z,100928.22
2022-09-04T13:18:45.756Z,100924.53
2022-09-04T13:22:42.843Z,100910.25
2022-09-04T13:26:23.747Z,100899.03
2022-09-04T13:29:53.836Z,100886.25
2022-09-04T13:33:32.815Z,100877.72
2022-09-04T13:37:24.766Z,100883.94
2022-09-04T13:41:13.836Z,100878.63
2022-09-04T13:45:17.783Z,100871.03
2022-09-04T13:49:00.801Z,100873.59
2022-09-04T13:52:35.806Z,100871.75
2022-09-04T13:56:09.840Z,100867.91
2022-09-04T13:59:34.763Z,100867.00
2022-09-04T14:03:03.803Z,100861.94
2022-09-04T14:06:30.953Z,100856.34
2022-09-04T14:09:58.774Z,100852.19
2022-09-04T14:13:38.816Z,100845.28
2022-09-04T14:17:04.828Z,100835.94
2022-09-04T14:20:53.835Z,100840.47
2022-09-04T14:24:25.944Z,100829.03
2022-09-04T14:27:53.833Z,100817.00
2022-09-04T14:32:00.898Z,100801.53
2022-09-04T14:35:58.782Z,100784.94
2022-09-04T14:39:50.924Z,100765.25
2022-09-04T14:43:41.786Z,100770.09
2022-09-04T14:47:38.831Z,100776.53
2022-09-04T14:51:08.816Z,100779.28
2022-09-04T14:54:33.875Z,100784.97
2022-09-04T14:58:02.818Z,100785.66
2022-09-04T15:01:37.890Z,100767.69
2022-09-04T15:05:07.771Z,100768.84
2022-09-04T15:08:46.829Z,100775.41
2022-09-04T15:12:36.824Z,100783.81
2022-09-04T15:16:14.877Z,100771.75
2022-09-04T15:19:54.960Z,100768.38
2022-09-04T15:23:31.828Z,100764.06
2022-09-04T15:27:11.000Z,100750.50
2022-09-04T15:30:43.705Z,100753.97
2022-09-04T15:34:35.872Z,100745.03
2022-09-04T15:38:02.091Z,100750.13
2022-09-04T15:41:47.908Z,100743.91
2022-09-04T15:45:11.855Z,100742.22
2022-09-04T15:49:13.931Z,100744.75
2022-09-04T15:53:00.805Z,100748.63
2022-09-04T15:56:44.941Z,100747.91
2022-09-04T16:00:17.852Z,100738.78
2022-09-04T16:04:02.863Z,100744.50
2022-09-04T16:07:47.917Z,100740.38
2022-09-04T16:11:18.440Z,100744.91
2022-09-04T16:15:01.296Z,100758.81
2022-09-04T16:18:44.846Z,100753.25
2022-09-04T16:22:22.801Z,100756.88
2022-09-04T16:26:02.887Z,100744.94
2022-09-04T16:29:44.812Z,100728.94
2022-09-04T16:33:20.565Z,100712.03
2022-09-04T16:36:55.872Z,100713.88
2022-09-04T16:40:28.886Z,100702.66
2022-09-04T16:43:55.004Z,100682.41
2022-09-04T16:47:32.848Z,100687.78
2022-09-04T16:51:39.239Z,100699.44
2022-09-04T16:55:32.883Z,100697.59
2022-09-04T16:59:07.907Z,100686.72
2022-09-04T17:03:07.063Z,100668.19
2022-09-04T17:06:42.900Z,100655.97
2022-09-04T17:10:14.877Z,100664.44
2022-09-04T17:14:08.445Z,100666.41
2022-09-04T17:17:35.843Z,100662.44
2022-09-04T17:24:58.137Z,100656.59
2022-09-04T17:29:13.983Z,100645.78
2022-09-04T17:29:28.147Z,100628.38
2022-09-04T17:39:06.237Z,100620.00
2022-09-04T17:40:55.959Z,100619.00
2022-09-04T17:41:36.792Z,100618.28
2022-09-04T17:45:09.875Z,100606.50
2022-09-04T17:48:41.929Z,100610.38
2022-09-04T17:52:11.852Z,100605.38
2022-09-04T17:55:39.047Z,100598.22
2022-09-04T17:59:31.886Z,100593.94
2022-09-04T18:03:03.903Z,100589.59
2022-09-04T18:06:32.839Z,100585.75
2022-09-04T18:10:13.925Z,100591.47
2022-09-04T18:13:55.913Z,100589.56
2022-09-04T18:17:42.901Z,100595.41
2022-09-04T18:21:26.932Z,100587.16
2022-09-04T18:25:16.508Z,100586.66
2022-09-04T18:29:00.733Z,100575.94
2022-09-04T18:37:16.258Z,100576.72
2022-09-04T18:37:40.773Z,100573.81
2022-09-04T18:42:41.146Z,100571.34
2022-09-04T18:50:28.033Z,100567.50
2022-09-04T18:50:30.032Z,100551.38
2022-09-04T18:52:30.296Z,100542.50
2022-09-04T18:56:20.827Z,100533.88
2022-09-04T18:59:45.898Z,100530.41
2022-09-04T19:03:46.897Z,100515.00
2022-09-04T19:07:37.868Z,100511.03
2022-09-04T19:11:21.150Z,100508.00
2022-09-04T19:14:39.464Z,100499.72
2022-09-04T19:18:02.930Z,100501.94
2022-09-04T19:25:06.938Z,100495.50
2022-09-04T19:28:33.905Z,100502.41
2022-09-04T19:32:30.863Z,100508.19
2022-09-04T19:35:57.914Z,100496.06
2022-09-04T19:46:01.577Z,100486.16
2022-09-04T19:46:15.612Z,100460.25
2022-09-04T19:48:27.044Z,100440.53
2022-09-04T19:53:35.188Z,100440.53
2022-09-04T19:56:09.951Z,100442.50
2022-09-04T19:59:53.934Z,100446.00
2022-09-04T20:03:38.434Z,100454.16
2022-09-04T20:07:03.888Z,100460.25
2022-09-04T20:10:57.903Z,100454.41
2022-09-04T20:14:29.901Z,100450.66
2022-09-04T20:18:19.932Z,100457.06
2022-09-04T20:22:09.889Z,100458.97
2022-09-04T20:25:45.972Z,100458.50
2022-09-04T20:29:21.931Z,100442.00
2022-09-04T20:32:58.945Z,100456.34
2022-09-04T20:36:27.933Z,100464.91
2022-09-04T20:39:56.976Z,100481.91
2022-09-04T20:43:31.919Z,100498.03
2022-09-04T20:52:43.805Z,100484.94
2022-09-04T20:52:48.975Z,100434.34
2022-09-04T20:55:18.906Z,100453.59
2022-09-04T21:03:11.239Z,100414.69
2022-09-04T21:03:28.813Z,100423.44
2022-09-04T21:07:17.977Z,100375.53
2022-09-04T21:11:39.823Z,100313.09
2022-09-04T21:14:54.976Z,100314.16
2022-09-04T21:18:46.469Z,100300.19
2022-09-04T21:22:33.077Z,100287.16
2022-09-04T21:26:00.939Z,100254.44
2022-09-04T21:29:39.991Z,100235.88
2022-09-04T21:33:36.405Z,100228.53
2022-09-04T21:37:15.995Z,100237.91
2022-09-04T21:40:51.696Z,100248.41
2022-09-04T21:44:27.993Z,100271.63
2022-09-04T21:48:16.271Z,100281.47
2022-09-04T21:52:18.980Z,100281.47
2022-09-04T21:59:58.925Z,100286.66
2022-09-04T22:02:42.628Z,100276.09
2022-09-04T22:04:21.109Z,100245.31
2022-09-04T22:13:34.298Z,100243.38
2022-09-04T22:13:46.219Z,100235.22
2022-09-04T22:15:53.034Z,100222.53
2022-09-04T22:19:53.004Z,100200.56
2022-09-04T22:23:54.926Z,100197.56
2022-09-04T22:28:08.272Z,100194.69
2022-09-04T22:32:17.246Z,100188.91
2022-09-04T22:36:06.154Z,100170.75
2022-09-04T22:39:51.971Z,100187.13
2022-09-04T22:43:46.679Z,100190.84
2022-09-04T22:47:33.950Z,100182.47
2022-09-04T22:51:32.977Z,100170.75
2022-09-04T22:54:57.027Z,100166.22
2022-09-04T22:58:42.478Z,100156.44
2022-09-04T23:03:06.730Z,100147.00
2022-09-04T23:10:17.144Z,100120.94
2022-09-04T23:14:02.932Z,100110.38
2022-09-04T23:14:28.005Z,100097.50
2022-09-04T23:19:55.310Z,100081.81
2022-09-04T23:26:36.373Z,100054.41
2022-09-04T23:26:48.843Z,100050.84
2022-09-04T23:30:29.997Z,100016.53
2022-09-04T23:34:23.040Z,99998.56
2022-09-04T23:38:07.994Z,99964.22
2022-09-04T23:41:34.034Z,99974.81
2022-09-04T23:45:14.989Z,99985.91
2022-09-04T23:49:13.985Z,99968.97
2022-09-04T23:53:01.014Z,99967.31
2022-09-04T23:56:50.993Z,99953.50
